Time;durP1;ratioP1;P1;durP2;ratioP2;P2;SDS_P1;SDS_P2;PMS_P1;PMS_P2;Temp;Humidity;BMP_temperature;BMP_pressure;BME280_temperature;BME280_humidity;BME280_pressure;Samples;Min_cycle;Max_cycle;Signal;HPM_P1;HPM_P2
2022/03/21 00:00:59;;;;;;;;;;;;;;;;;;2064762;28;19929;-84
2022/03/21 00:02:01;;;;;;;;;;;;;;;;;;2073254;28;19940;-85
2022/03/21 00:03:02;;;;;;;;;;;;;;;;;;2064734;28;20262;-84
2022/03/21 00:04:03;;;;;;;;;;;;;;;;;;2064743;28;19914;-84
2022/03/21 00:05:03;;;;;;;;;;;;;;;;;;2073301;28;20044;-84
2022/03/21 00:06:05;;;;;;;;;;;;;;;;;;2073174;28;19976;-85
2022/03/21 00:07:05;;;;;;;;;;;;;;;;;;2073276;28;19925;-85
2022/03/21 00:08:05;;;;;;;;;;;;;;;;;;2064556;28;19956;-85
2022/03/21 00:09:05;;;;;;;;;;;;;;;;;;2056592;28;19937;-83
2022/03/21 00:10:06;;;;;;;;;;;;;;;;;;2064686;28;19914;-84
2022/03/21 00:11:06;;;;;;;;;;;;;;;;;;2073159;28;20370;-84
2022/03/21 00:12:07;;;;;;;;;;;;;;;;;;2064529;28;19936;-85
2022/03/21 00:13:08;;;;;;;;;;;;;;;;;;2056423;28;19965;-84
2022/03/21 00:14:11;;;;;;;;;;;;;;;;;;2064701;28;19922;-84
2022/03/21 00:15:12;;;;;;;;;;;;;;;;;;2073454;28;19929;-84
2022/03/21 00:16:12;;;;;;;;;;;;;;;;;;2073122;28;19914;-84
2022/03/21 00:17:13;;;;;;;;;;;;;;;;;;2073235;28;19928;-85
2022/03/21 00:18:14;;;;;;;;;;;;;;;;;;2064695;28;20407;-83
2022/03/21 00:19:14;;;;;;;;;;;;;;;;;;2056616;28;19914;-84
2022/03/21 00:20:17;;;;;;;;;;;;;;;;;;2064695;28;19924;-83
2022/03/21 00:21:17;;;;;;;;;;;;;;;;;;2073151;28;20009;-83
2022/03/21 00:22:20;;;;;;;;;;;;;;;;;;2073363;28;19928;-83
2022/03/21 00:23:21;;;;;;;;;;;;;;;;;;2073229;28;19921;-84
2022/03/21 00:24:24;;;;;;;;;;;;;;;;;;2064703;28;19969;-84
2022/03/21 00:25:24;;;;;;;;;;;;;;;;;;2064720;28;19914;-84
2022/03/21 00:26:25;;;;;;;;;;;;;;;;;;2073327;28;20008;-84
2022/03/21 00:27:25;;;;;;;;;;;;;;;;;;2064493;28;19914;-84
2022/03/21 00:28:26;;;;;;;;;;;;;;;;;;2064812;28;19924;-84
2022/03/21 00:29:26;;;;;;;;;;;;;;;;;;2073533;28;19957;-84
2022/03/21 00:30:27;;;;;;;;;;;;;;;;;;2073304;28;19913;-84
2022/03/21 00:31:28;;;;;;;;;;;;;;;;;;2064493;28;20004;-85
2022/03/21 00:32:29;;;;;;;;;;;;;;;;;;2056624;28;19914;-85
2022/03/21 00:33:31;;;;;;;;;;;;;;;;;;2056774;28;19918;-84
2022/03/21 00:34:31;;;;;;;;;;;;;;;;;;2058257;28;19968;-85
2022/03/21 00:35:35;;;;;;;;;;;;;;;;;;2057919;28;20287;-84
2022/03/21 00:36:35;;;;;;;;;;;;;;;;;;2058015;28;20016;-84
2022/03/21 00:37:37;;;;;;;;;;;;;;;;;;2057969;28;19972;-84
2022/03/21 00:38:37;;;;;;;;;;;;;;;;;;2066184;28;19997;-85
2022/03/21 00:39:41;;;;;;;;;;;;;;;;;;2074568;28;20370;-84
2022/03/21 00:40:44;;;;;;;;;;;;;;;;;;2074512;28;20315;-85
2022/03/21 00:41:45;;;;;;;;;;;;;;;;;;2066002;28;19954;-84
2022/03/21 00:42:46;;;;;;;;;;;;;;;;;;2057937;28;20399;-84
2022/03/21 00:43:47;;;;;;;;;;;;;;;;;;2066178;28;20025;-84
2022/03/21 00:44:47;;;;;;;;;;;;;;;;;;2074454;28;20401;-84
2022/03/21 00:45:48;;;;;;;;;;;;;;;;;;2074495;28;19913;-84
2022/03/21 00:46:48;;;;;;;;;;;;;;;;;;2065769;28;19929;-84
2022/03/21 00:47:52;;;;;;;;;;;;;;;;;;2065929;28;19924;-85
2022/03/21 00:48:52;;;;;;;;;;;;;;;;;;2074537;28;19914;-85
2022/03/21 00:49:52;;;;;;;;;;;;;;;;;;2074443;28;19924;-84
2022/03/21 00:50:53;;;;;;;;;;;;;;;;;;2074479;28;19925;-84
2022/03/21 00:51:53;;;;;;;;;;;;;;;;;;2074455;28;19983;-85
2022/03/21 00:52:55;;;;;;;;;;;;;;;;;;2074396;28;19927;-85
2022/03/21 00:53:55;;;;;;;;;;;;;;;;;;2065809;28;19937;-85
2022/03/21 00:54:55;;;;;;;;;;;;;;;;;;2065898;28;20008;-85
2022/03/21 00:55:56;;;;;;;;;;;;;;;;;;2074278;28;20007;-84
2022/03/21 00:56:58;;;;;;;;;;;;;;;;;;2074456;28;19914;-85
2022/03/21 00:57:59;;;;;;;;;;;;;;;;;;2074451;28;19917;-84
2022/03/21 00:59:00;;;;;;;;;;;;;;;;;;2074395;28;20378;-84
2022/03/21 01:00:00;;;;;;;;;;;;;;;;;;2065727;28;20323;-84
2022/03/21 01:01:01;;;;;;;;;;;;;;;;;;2065907;28;20319;-83
2022/03/21 01:02:01;;;;;;;;;;;;;;;;;;2074343;28;19921;-83
2022/03/21 01:03:02;;;;;;;;;;;;;;;;;;2074556;28;19975;-84
2022/03/21 01:04:02;;;;;;;;;;;;;;;;;;2074364;28;19913;-85
2022/03/21 01:05:03;;;;;;;;;;;;;;;;;;2074368;28;19918;-85
2022/03/21 01:06:03;;;;;;;;;;;;;;;;;;2074460;28;20351;-85
2022/03/21 01:07:04;;;;;;;;;;;;;;;;;;2074344;28;19913;-84
2022/03/21 01:08:05;;;;;;;;;;;;;;;;;;2074307;28;19933;-85
2022/03/21 01:09:05;;;;;;;;;;;;;;;;;;2074452;28;20477;-85
2022/03/21 01:10:06;;;;;;;;;;;;;;;;;;2074299;28;20256;-84
2022/03/21 01:11:06;;;;;;;;;;;;;;;;;;2074341;28;19941;-84
2022/03/21 01:12:14;;;;;;;;;;;;;;;;;;2074240;28;19925;-85
2022/03/21 01:13:18;;;;;;;;;;;;;;;;;;2076966;28;19917;-85
2022/03/21 01:14:18;;;;;;;;;;;;;;;;;;2074242;28;19917;-84
2022/03/21 01:15:20;;;;;;;;;;;;;;;;;;2074369;28;19924;-85
2022/03/21 01:16:20;;;;;;;;;;;;;;;;;;2065655;28;20434;-85
2022/03/21 01:17:20;;;;;;;;;;;;;;;;;;2065658;28;19973;-85
2022/03/21 01:18:22;;;;;;;;;;;;;;;;;;2065554;28;20283;-85
2022/03/21 01:19:23;;;;;;;;;;;;;;;;;;2065740;28;20183;-85
2022/03/21 01:20:24;;;;;;;;;;;;;;;;;;2057614;28;19920;-85
2022/03/21 01:21:24;;;;;;;;;;;;;;;;;;2065701;28;19976;-84
2022/03/21 01:22:24;;;;;;;;;;;;;;;;;;2065633;28;19913;-84
2022/03/21 01:23:25;;;;;;;;;;;;;;;;;;2057496;28;19914;-85
2022/03/21 01:24:25;;;;;;;;;;;;;;;;;;2057525;28;20114;-85
2022/03/21 01:25:25;;;;;;;;;;;;;;;;;;2057320;28;20168;-84
2022/03/21 01:26:26;;;;;;;;;;;;;;;;;;2065859;28;19918;-84
2022/03/21 01:27:26;;;;;;;;;;;;;;;;;;2065580;28;19914;-84
2022/03/21 01:28:27;;;;;;;;;;;;;;;;;;2065871;28;19914;-84
2022/03/21 01:29:27;;;;;;;;;;;;;;;;;;2065688;28;19925;-84
2022/03/21 01:30:27;;;;;;;;;;;;;;;;;;2057598;28;19918;-85
2022/03/21 01:31:27;;;;;;;;;;;;;;;;;;2065492;28;20006;-84
2022/03/21 01:32:28;;;;;;;;;;;;;;;;;;2074134;28;20000;-85
2022/03/21 01:33:30;;;;;;;;;;;;;;;;;;2074095;28;20382;-85
2022/03/21 01:34:31;;;;;;;;;;;;;;;;;;2074090;28;19917;-84
2022/03/21 01:35:31;;;;;;;;;;;;;;;;;;2065426;28;19925;-84
2022/03/21 01:36:31;;;;;;;;;;;;;;;;;;2065609;28;19914;-84
2022/03/21 01:37:31;;;;;;;;;;;;;;;;;;2074064;28;19921;-84
2022/03/21 01:38:32;;;;;;;;;;;;;;;;;;2065595;28;19980;-84
2022/03/21 01:39:32;;;;;;;;;;;;;;;;;;2065573;28;20064;-84
2022/03/21 01:40:32;;;;;;;;;;;;;;;;;;2074081;28;20022;-84
2022/03/21 01:41:33;;;;;;;;;;;;;;;;;;2074092;28;19983;-84
2022/03/21 01:42:33;;;;;;;;;;;;;;;;;;2074064;28;19917;-84
2022/03/21 01:43:53;;;;;;;;;;;;;;;;;;2074056;28;20059;-84
2022/03/21 01:44:55;;;;;;;;;;;;;;;;;;2073507;28;19928;-84
2022/03/21 01:45:55;;;;;;;;;;;;;;;;;;2073596;28;19914;-84
2022/03/21 01:46:56;;;;;;;;;;;;;;;;;;2074013;28;19918;-84
2022/03/21 01:47:56;;;;;;;;;;;;;;;;;;2074035;28;20294;-84
2022/03/21 01:48:57;;;;;;;;;;;;;;;;;;2065396;28;19922;-85
2022/03/21 01:49:57;;;;;;;;;;;;;;;;;;2065425;28;20294;-85
2022/03/21 01:50:57;;;;;;;;;;;;;;;;;;2073992;28;20381;-84
2022/03/21 01:51:58;;;;;;;;;;;;;;;;;;2073970;28;20020;-84
2022/03/21 01:55:48;;;;;;;;;;;;;;;;;;2074112;28;19913;-84
2022/03/21 01:56:48;;;;;;;;;;;;;;;;;;2074106;28;19929;-85
2022/03/21 01:57:50;;;;;;;;;;;;;;;;;;2065347;28;19914;-83
2022/03/21 01:58:50;;;;;;;;;;;;;;;;;;2065504;28;19921;-84
2022/03/21 01:59:50;;;;;;;;;;;;;;;;;;2065262;28;19918;-85
2022/03/21 02:00:51;;;;;;;;;;;;;;;;;;2057304;28;19926;-85
2022/03/21 02:01:52;;;;;;;;;;;;;;;;;;2065417;28;19924;-85
2022/03/21 02:02:52;;;;;;;;;;;;;;;;;;2065219;28;19960;-85
2022/03/21 02:03:52;;;;;;;;;;;;;;;;;;2065476;28;20359;-85
2022/03/21 02:04:55;;;;;;;;;;;;;;;;;;2073834;28;19913;-85
2022/03/21 02:05:56;;;;;;;;;;;;;;;;;;2073957;28;20333;-85
2022/03/21 02:06:57;;;;;;;;;;;;;;;;;;2073920;28;19914;-85
2022/03/21 02:07:57;;;;;;;;;;;;;;;;;;2073867;28;19987;-84
2022/03/21 02:08:58;;;;;;;;;;;;;;;;;;2065229;28;19917;-85
2022/03/21 02:09:58;;;;;;;;;;;;;;;;;;2065315;28;19918;-85
2022/03/21 02:11:00;;;;;;;;;;;;;;;;;;2073898;28;19913;-85
2022/03/21 02:12:01;;;;;;;;;;;;;;;;;;2073865;28;19914;-85
2022/03/21 02:13:01;;;;;;;;;;;;;;;;;;2065151;28;20355;-85
2022/03/21 02:14:03;;;;;;;;;;;;;;;;;;2057209;28;20330;-85
2022/03/21 02:15:03;;;;;;;;;;;;;;;;;;2065306;28;19914;-85
2022/03/21 02:16:04;;;;;;;;;;;;;;;;;;2073622;28;20358;-85
2022/03/21 02:17:04;;;;;;;;;;;;;;;;;;2073823;28;19913;-85
2022/03/21 02:18:06;;;;;;;;;;;;;;;;;;2073857;28;19917;-85
2022/03/21 02:19:27;;;;;;;;;;;;;;;;;;2073723;28;19924;-85
2022/03/21 02:20:29;;;;;;;;;;;;;;;;;;2073397;28;19921;-84
2022/03/21 02:21:41;;;;;;;;;;;;;;;;;;2073752;28;19979;-85
2022/03/21 02:23:07;;;;;;;;;;;;;;;;;;2065136;28;19914;-83
2022/03/21 02:24:09;;;;;;;;;;;;;;;;;;2068835;28;20008;-84
2022/03/21 02:25:18;;;;;;;;;;;;;;;;;;2065038;28;19924;-83
2022/03/21 02:26:18;;;;;;;;;;;;;;;;;;2065075;28;19918;-83
2022/03/21 02:27:19;;;;;;;;;;;;;;;;;;2065213;28;20371;-84
2022/03/21 02:28:20;;;;;;;;;;;;;;;;;;2065117;28;20378;-84
2022/03/21 02:29:22;;;;;;;;;;;;;;;;;;2065213;28;20354;-85
2022/03/21 02:30:23;;;;;;;;;;;;;;;;;;2065135;28;19972;-84
2022/03/21 02:31:24;;;;;;;;;;;;;;;;;;2065229;28;19922;-84
2022/03/21 02:32:24;;;;;;;;;;;;;;;;;;2073719;28;19913;-83
2022/03/21 02:33:27;;;;;;;;;;;;;;;;;;2073680;28;19925;-83
2022/03/21 02:34:28;;;;;;;;;;;;;;;;;;2065118;28;19914;-84
2022/03/21 02:35:30;;;;;;;;;;;;;;;;;;2064992;28;19961;-84
2022/03/21 02:36:31;;;;;;;;;;;;;;;;;;2065090;28;20278;-84
2022/03/21 02:37:31;;;;;;;;;;;;;;;;;;2065116;28;19914;-84
2022/03/21 02:38:32;;;;;;;;;;;;;;;;;;2073654;28;20343;-84
2022/03/21 02:39:34;;;;;;;;;;;;;;;;;;2073779;28;19914;-84
2022/03/21 02:40:34;;;;;;;;;;;;;;;;;;2073679;28;20101;-84
2022/03/21 02:41:35;;;;;;;;;;;;;;;;;;2073687;28;19940;-84
2022/03/21 02:42:35;;;;;;;;;;;;;;;;;;2073651;28;19949;-85
2022/03/21 02:43:54;;;;;;;;;;;;;;;;;;2065055;28;20264;-85
2022/03/21 02:44:56;;;;;;;;;;;;;;;;;;2067533;28;19914;-84
2022/03/21 02:46:05;;;;;;;;;;;;;;;;;;2064916;28;19914;-84
2022/03/21 02:47:06;;;;;;;;;;;;;;;;;;2058103;28;19914;-84
2022/03/21 02:48:07;;;;;;;;;;;;;;;;;;2065159;28;20394;-84
2022/03/21 02:49:07;;;;;;;;;;;;;;;;;;2064939;28;19914;-83
2022/03/21 02:50:11;;;;;;;;;;;;;;;;;;2065091;28;20000;-84
2022/03/21 02:51:14;;;;;;;;;;;;;;;;;;2073514;28;19914;-84
2022/03/21 02:52:15;;;;;;;;;;;;;;;;;;2074141;28;19913;-84
2022/03/21 02:53:16;;;;;;;;;;;;;;;;;;2073831;28;19979;-83
2022/03/21 02:54:19;;;;;;;;;;;;;;;;;;2067003;28;20022;-83
2022/03/21 02:55:19;;;;;;;;;;;;;;;;;;2065688;28;19918;-85
2022/03/21 02:56:20;;;;;;;;;;;;;;;;;;2064929;28;19968;-83
2022/03/21 02:57:21;;;;;;;;;;;;;;;;;;2073561;28;20037;-84
2022/03/21 02:58:21;;;;;;;;;;;;;;;;;;2064851;28;19928;-84
2022/03/21 02:59:21;;;;;;;;;;;;;;;;;;2064918;28;19921;-84
2022/03/21 03:00:22;;;;;;;;;;;;;;;;;;2073462;28;19913;-84
2022/03/21 03:01:22;;;;;;;;;;;;;;;;;;2073539;28;19996;-84
2022/03/21 03:02:22;;;;;;;;;;;;;;;;;;2064908;28;20012;-84
2022/03/21 03:03:23;;;;;;;;;;;;;;;;;;2064945;28;19914;-84
2022/03/21 03:04:24;;;;;;;;;;;;;;;;;;2073457;28;19915;-84
2022/03/21 03:05:24;;;;;;;;;;;;;;;;;;2073383;28;19923;-84
2022/03/21 03:06:24;;;;;;;;;;;;;;;;;;2064837;28;19950;-83
2022/03/21 03:07:24;;;;;;;;;;;;;;;;;;2064924;28;19984;-83
2022/03/21 03:08:25;;;;;;;;;;;;;;;;;;2064795;28;19977;-83
2022/03/21 03:09:25;;;;;;;;;;;;;;;;;;2064939;28;19945;-84
2022/03/21 03:10:25;;;;;;;;;;;;;;;;;;2064800;28;19940;-84
2022/03/21 03:11:25;;;;;;;;;;;;;;;;;;2064856;28;19958;-84
2022/03/21 03:12:26;;;;;;;;;;;;;;;;;;2064669;28;19917;-85
2022/03/21 03:13:26;;;;;;;;;;;;;;;;;;2064806;28;19960;-84
2022/03/21 03:14:26;;;;;;;;;;;;;;;;;;2073360;28;19925;-84
2022/03/21 03:15:27;;;;;;;;;;;;;;;;;;2073283;28;20078;-83
2022/03/21 03:16:27;;;;;;;;;;;;;;;;;;2073414;28;20383;-84
2022/03/21 03:17:27;;;;;;;;;;;;;;;;;;2073468;28;19917;-83
2022/03/21 03:18:28;;;;;;;;;;;;;;;;;;2073481;28;20032;-83
2022/03/21 03:19:28;;;;;;;;;;;;;;;;;;2064736;28;19917;-85
2022/03/21 03:20:28;;;;;;;;;;;;;;;;;;2064792;28;19976;-83
2022/03/21 03:21:33;;;;;;;;;;;;;;;;;;2064696;28;20438;-84
2022/03/21 03:22:34;;;;;;;;;;;;;;;;;;2064760;28;19921;-85
2022/03/21 03:23:34;;;;;;;;;;;;;;;;;;2064858;28;19953;-84
2022/03/21 03:24:35;;;;;;;;;;;;;;;;;;2073413;28;19991;-84
2022/03/21 03:25:36;;;;;;;;;;;;;;;;;;2073286;28;19918;-84
2022/03/21 03:26:36;;;;;;;;;;;;;;;;;;2073419;28;19914;-84
2022/03/21 03:27:37;;;;;;;;;;;;;;;;;;2073427;28;19964;-84
2022/03/21 03:28:38;;;;;;;;;;;;;;;;;;2073309;28;19964;-84
2022/03/21 03:29:38;;;;;;;;;;;;;;;;;;2073353;28;19928;-84
2022/03/21 03:30:39;;;;;;;;;;;;;;;;;;2073740;28;19920;-85
2022/03/21 03:31:40;;;;;;;;;;;;;;;;;;2074074;28;19921;-84
2022/03/21 03:32:40;;;;;;;;;;;;;;;;;;2073370;28;19924;-84
2022/03/21 03:33:41;;;;;;;;;;;;;;;;;;2073324;28;19917;-83
2022/03/21 03:34:41;;;;;;;;;;;;;;;;;;2073324;28;19918;-84
2022/03/21 03:35:41;;;;;;;;;;;;;;;;;;2073240;28;20274;-83
2022/03/21 03:36:42;;;;;;;;;;;;;;;;;;2073425;28;19949;-83
2022/03/21 03:37:42;;;;;;;;;;;;;;;;;;2064711;28;20307;-83
2022/03/21 03:38:43;;;;;;;;;;;;;;;;;;2064758;28;19932;-84
2022/03/21 03:39:43;;;;;;;;;;;;;;;;;;2064761;28;19924;-84
2022/03/21 03:40:44;;;;;;;;;;;;;;;;;;2064665;28;19914;-83
2022/03/21 03:41:45;;;;;;;;;;;;;;;;;;2073439;28;20004;-83
2022/03/21 03:42:46;;;;;;;;;;;;;;;;;;2064607;28;19983;-83
2022/03/21 03:43:49;;;;;;;;;;;;;;;;;;2064833;28;20443;-84
2022/03/21 03:44:50;;;;;;;;;;;;;;;;;;2073320;28;20001;-84
2022/03/21 03:45:52;;;;;;;;;;;;;;;;;;2064649;28;19914;-84
2022/03/21 03:46:53;;;;;;;;;;;;;;;;;;2064975;28;19929;-84
2022/03/21 03:47:53;;;;;;;;;;;;;;;;;;2064933;28;19928;-84
2022/03/21 03:48:54;;;;;;;;;;;;;;;;;;2056647;28;19914;-83
2022/03/21 03:49:54;;;;;;;;;;;;;;;;;;2064810;28;19976;-85
2022/03/21 03:50:55;;;;;;;;;;;;;;;;;;2073334;28;20023;-84
2022/03/21 03:51:55;;;;;;;;;;;;;;;;;;2064699;28;20290;-84
2022/03/21 03:52:55;;;;;;;;;;;;;;;;;;2064723;28;20193;-84
2022/03/21 03:53:56;;;;;;;;;;;;;;;;;;2073325;28;19963;-85
2022/03/21 03:54:56;;;;;;;;;;;;;;;;;;2073596;28;19918;-84
2022/03/21 03:55:56;;;;;;;;;;;;;;;;;;2073424;28;19918;-83
2022/03/21 03:56:57;;;;;;;;;;;;;;;;;;2073349;28;19913;-84
2022/03/21 03:57:57;;;;;;;;;;;;;;;;;;2073305;28;19913;-85
2022/03/21 03:58:57;;;;;;;;;;;;;;;;;;2073273;28;20016;-84
2022/03/21 03:59:57;;;;;;;;;;;;;;;;;;2064616;28;19984;-84
2022/03/21 04:00:58;;;;;;;;;;;;;;;;;;2064713;28;20116;-84
2022/03/21 04:01:58;;;;;;;;;;;;;;;;;;2064530;28;20418;-83
2022/03/21 04:04:19;;;;;;;;;;;;;;;;;;2067422;28;19913;-83
2022/03/21 04:05:21;;;;;;;;;;;;;;;;;;2064666;28;20302;-84
2022/03/21 04:06:22;;;;;;;;;;;;;;;;;;2064815;28;20425;-84
2022/03/21 04:07:24;;;;;;;;;;;;;;;;;;2073345;28;19917;-84
2022/03/21 04:08:25;;;;;;;;;;;;;;;;;;2073234;28;19944;-84
2022/03/21 04:09:25;;;;;;;;;;;;;;;;;;2074762;28;19921;-85
2022/03/21 04:10:26;;;;;;;;;;;;;;;;;;2074745;28;19925;-84
2022/03/21 04:11:26;;;;;;;;;;;;;;;;;;2074749;28;19956;-84
2022/03/21 04:12:27;;;;;;;;;;;;;;;;;;2074863;28;20413;-84
2022/03/21 04:13:27;;;;;;;;;;;;;;;;;;2074732;28;20013;-84
2022/03/21 04:14:27;;;;;;;;;;;;;;;;;;2074650;28;20248;-84
2022/03/21 04:15:27;;;;;;;;;;;;;;;;;;2074748;28;19917;-84
2022/03/21 04:16:28;;;;;;;;;;;;;;;;;;2066209;28;19914;-84
2022/03/21 04:17:28;;;;;;;;;;;;;;;;;;2066312;28;20016;-84
2022/03/21 04:18:28;;;;;;;;;;;;;;;;;;2074649;28;20004;-84
2022/03/21 04:19:29;;;;;;;;;;;;;;;;;;2074852;28;19976;-84
2022/03/21 04:20:31;;;;;;;;;;;;;;;;;;2065943;28;20068;-84
2022/03/21 04:21:31;;;;;;;;;;;;;;;;;;2066275;28;19914;-84
2022/03/21 04:22:33;;;;;;;;;;;;;;;;;;2066051;28;20097;-83
2022/03/21 04:23:33;;;;;;;;;;;;;;;;;;2066217;28;20005;-83
2022/03/21 04:24:34;;;;;;;;;;;;;;;;;;2074668;28;19917;-84
2022/03/21 04:25:34;;;;;;;;;;;;;;;;;;2065898;28;19957;-84
2022/03/21 04:26:34;;;;;;;;;;;;;;;;;;2066114;28;19914;-83
2022/03/21 04:27:35;;;;;;;;;;;;;;;;;;2065977;28;20401;-84
2022/03/21 04:28:35;;;;;;;;;;;;;;;;;;2066110;28;20330;-84
2022/03/21 04:29:35;;;;;;;;;;;;;;;;;;2066014;28;20434;-84
2022/03/21 04:30:37;;;;;;;;;;;;;;;;;;2057974;28;19918;-84
2022/03/21 04:31:37;;;;;;;;;;;;;;;;;;2066296;28;20015;-84
2022/03/21 04:32:37;;;;;;;;;;;;;;;;;;2074680;28;19921;-84
2022/03/21 04:33:40;;;;;;;;;;;;;;;;;;2074596;28;20430;-84
2022/03/21 04:34:42;;;;;;;;;;;;;;;;;;2065956;28;19972;-84
2022/03/21 04:35:44;;;;;;;;;;;;;;;;;;2066199;28;19993;-83
2022/03/21 04:36:46;;;;;;;;;;;;;;;;;;2074759;28;19924;-84
2022/03/21 04:37:47;;;;;;;;;;;;;;;;;;2074577;28;20346;-84
2022/03/21 04:38:47;;;;;;;;;;;;;;;;;;2074634;28;20007;-84
2022/03/21 04:39:47;;;;;;;;;;;;;;;;;;2074499;28;19924;-84
2022/03/21 04:40:49;;;;;;;;;;;;;;;;;;2074552;28;19922;-84
2022/03/21 04:41:49;;;;;;;;;;;;;;;;;;2074491;28;19957;-84
2022/03/21 04:42:50;;;;;;;;;;;;;;;;;;2074680;28;19924;-84
2022/03/21 04:43:50;;;;;;;;;;;;;;;;;;2065756;28;20186;-85
2022/03/21 04:44:51;;;;;;;;;;;;;;;;;;2057735;28;20267;-84
2022/03/21 04:45:59;;;;;;;;;;;;;;;;;;2065384;28;19913;-86
2022/03/21 04:46:59;;;;;;;;;;;;;;;;;;2074176;28;19913;-84
2022/03/21 04:48:00;;;;;;;;;;;;;;;;;;2074300;28;20353;-83
2022/03/21 04:49:00;;;;;;;;;;;;;;;;;;2074550;28;19929;-83
2022/03/21 04:50:01;;;;;;;;;;;;;;;;;;2074370;28;19952;-83
2022/03/21 04:51:01;;;;;;;;;;;;;;;;;;2074538;28;19921;-82
2022/03/21 04:52:01;;;;;;;;;;;;;;;;;;2074385;28;19924;-84
2022/03/21 04:53:02;;;;;;;;;;;;;;;;;;2065873;28;20244;-83
2022/03/21 04:54:02;;;;;;;;;;;;;;;;;;2065701;28;19925;-83
2022/03/21 04:55:08;;;;;;;;;;;;;;;;;;2074490;28;19989;-83
2022/03/21 04:56:08;;;;;;;;;;;;;;;;;;2065746;28;19926;-85
2022/03/21 04:57:10;;;;;;;;;;;;;;;;;;2057822;28;20356;-82
2022/03/21 04:58:11;;;;;;;;;;;;;;;;;;2066136;28;19913;-84
2022/03/21 04:59:14;;;;;;;;;;;;;;;;;;2074379;28;19913;-84
2022/03/21 05:00:14;;;;;;;;;;;;;;;;;;2074580;28;20378;-84
2022/03/21 05:01:15;;;;;;;;;;;;;;;;;;2074653;28;19918;-84
2022/03/21 05:02:15;;;;;;;;;;;;;;;;;;2074412;28;19913;-84
2022/03/21 05:03:15;;;;;;;;;;;;;;;;;;2074258;28;20398;-84
2022/03/21 05:04:16;;;;;;;;;;;;;;;;;;2065818;28;20000;-83
2022/03/21 05:05:16;;;;;;;;;;;;;;;;;;2065799;28;19945;-84
2022/03/21 05:06:17;;;;;;;;;;;;;;;;;;2074050;28;19925;-85
2022/03/21 05:07:17;;;;;;;;;;;;;;;;;;2074390;28;19913;-84
2022/03/21 05:08:18;;;;;;;;;;;;;;;;;;2074225;28;19917;-85
2022/03/21 05:09:18;;;;;;;;;;;;;;;;;;2065824;28;19917;-84
2022/03/21 05:10:20;;;;;;;;;;;;;;;;;;2065844;28;19941;-84
2022/03/21 05:11:20;;;;;;;;;;;;;;;;;;2074308;28;20362;-84
2022/03/21 05:12:20;;;;;;;;;;;;;;;;;;2074302;28;19959;-84
2022/03/21 05:13:21;;;;;;;;;;;;;;;;;;2074148;28;19917;-85
2022/03/21 05:14:21;;;;;;;;;;;;;;;;;;2074521;28;19913;-84
2022/03/21 05:15:21;;;;;;;;;;;;;;;;;;2074529;28;20011;-84
2022/03/21 05:16:22;;;;;;;;;;;;;;;;;;2074872;28;19913;-83
2022/03/21 05:17:22;;;;;;;;;;;;;;;;;;2065628;28;19952;-83
2022/03/21 05:18:22;;;;;;;;;;;;;;;;;;2065693;28;20294;-83
2022/03/21 05:19:23;;;;;;;;;;;;;;;;;;2065222;28;19914;-83
2022/03/21 05:20:24;;;;;;;;;;;;;;;;;;2065744;28;19924;-84
2022/03/21 05:21:24;;;;;;;;;;;;;;;;;;2074342;28;19913;-85
2022/03/21 05:22:25;;;;;;;;;;;;;;;;;;2074269;28;19913;-83
2022/03/21 05:31:22;;;;;;;;;;;;;;;;;;2074372;28;19922;-84
2022/03/21 05:32:22;;;;;;;;;;;;;;;;;;2074225;28;19913;-85
2022/03/21 05:36:02;;;;;;;;;;;;;;;;;;2064955;28;20206;-85
2022/03/21 05:37:02;;;;;;;;;;;;;;;;;;2063737;28;19914;-84
2022/03/21 05:38:02;;;;;;;;;;;;;;;;;;2057470;28;20009;-85
2022/03/21 05:39:03;;;;;;;;;;;;;;;;;;2065567;28;20016;-85
2022/03/21 05:41:23;;;;;;;;;;;;;;;;;;2074218;28;19913;-85
2022/03/21 05:42:23;;;;;;;;;;;;;;;;;;2074188;28;19913;-85
2022/03/21 05:43:24;;;;;;;;;;;;;;;;;;2074018;28;19979;-84
2022/03/21 05:44:24;;;;;;;;;;;;;;;;;;2074165;28;19913;-85
2022/03/21 05:45:25;;;;;;;;;;;;;;;;;;2073994;28;19925;-84
2022/03/21 05:46:26;;;;;;;;;;;;;;;;;;2074005;28;19918;-85
2022/03/21 05:47:27;;;;;;;;;;;;;;;;;;2065520;28;19949;-85
2022/03/21 05:49:47;;;;;;;;;;;;;;;;;;2074116;28;19977;-84
2022/03/21 05:50:47;;;;;;;;;;;;;;;;;;2074155;28;19913;-84
2022/03/21 05:51:47;;;;;;;;;;;;;;;;;;2074037;28;19924;-84
2022/03/21 05:52:47;;;;;;;;;;;;;;;;;;2065378;28;20359;-85
2022/03/21 05:53:48;;;;;;;;;;;;;;;;;;2057403;28;19922;-85
2022/03/21 05:54:49;;;;;;;;;;;;;;;;;;2065364;28;19925;-84
2022/03/21 05:56:03;;;;;;;;;;;;;;;;;;2065089;28;20343;-86
2022/03/21 05:57:07;;;;;;;;;;;;;;;;;;2058324;28;19915;-86
2022/03/21 05:58:10;;;;;;;;;;;;;;;;;;2065104;28;20485;-84
2022/03/21 06:00:30;;;;;;;;;;;;;;;;;;2074130;28;19913;-85
2022/03/21 06:01:30;;;;;;;;;;;;;;;;;;2073973;28;19975;-85
2022/03/21 06:02:31;;;;;;;;;;;;;;;;;;2073864;28;20378;-84
2022/03/21 06:03:31;;;;;;;;;;;;;;;;;;2074404;28;19913;-85
2022/03/21 06:04:31;;;;;;;;;;;;;;;;;;2073872;28;19947;-85
2022/03/21 06:05:32;;;;;;;;;;;;;;;;;;2073748;28;19913;-85
2022/03/21 06:06:32;;;;;;;;;;;;;;;;;;2074054;28;19917;-85
2022/03/21 06:07:35;;;;;;;;;;;;;;;;;;2073776;28;20414;-83
2022/03/21 06:08:35;;;;;;;;;;;;;;;;;;2073615;28;19913;-85
2022/03/21 06:09:38;;;;;;;;;;;;;;;;;;2064591;28;20306;-86
2022/03/21 06:10:38;;;;;;;;;;;;;;;;;;2056892;28;19925;-86
2022/03/21 06:11:50;;;;;;;;;;;;;;;;;;2064989;28;19922;-84
2022/03/21 06:12:55;;;;;;;;;;;;;;;;;;2065397;28;19924;-86
2022/03/21 06:13:56;;;;;;;;;;;;;;;;;;2065315;28;20458;-84
2022/03/21 06:14:56;;;;;;;;;;;;;;;;;;2064785;28;19976;-84
2022/03/21 06:15:56;;;;;;;;;;;;;;;;;;2056684;28;19928;-85
2022/03/21 06:16:57;;;;;;;;;;;;;;;;;;2064811;28;20299;-85
2022/03/21 06:18:01;;;;;;;;;;;;;;;;;;2073624;28;20212;-84
2022/03/21 06:19:01;;;;;;;;;;;;;;;;;;2065608;28;20037;-85
2022/03/21 06:20:02;;;;;;;;;;;;;;;;;;2065174;28;19933;-86
2022/03/21 06:21:08;;;;;;;;;;;;;;;;;;2074000;28;19913;-84
2022/03/21 06:22:28;;;;;;;;;;;;;;;;;;2073978;28;19943;-85
2022/03/21 06:23:35;;;;;;;;;;;;;;;;;;2073831;28;20145;-85
2022/03/21 06:24:38;;;;;;;;;;;;;;;;;;2073856;28;19913;-85
2022/03/21 06:25:58;;;;;;;;;;;;;;;;;;2064976;28;20373;-85
2022/03/21 06:26:58;;;;;;;;;;;;;;;;;;2070626;28;19914;-84
2022/03/21 06:28:02;;;;;;;;;;;;;;;;;;2065215;28;20282;-84
2022/03/21 06:29:22;;;;;;;;;;;;;;;;;;2057449;28;19985;-85
2022/03/21 06:30:25;;;;;;;;;;;;;;;;;;2059565;28;19914;-85
2022/03/21 06:31:26;;;;;;;;;;;;;;;;;;2064922;28;19953;-86
2022/03/21 06:32:29;;;;;;;;;;;;;;;;;;2065071;28;19914;-83
2022/03/21 06:33:46;;;;;;;;;;;;;;;;;;2065521;28;19921;-82
2022/03/21 06:34:49;;;;;;;;;;;;;;;;;;2074347;28;19920;-85
2022/03/21 06:35:54;;;;;;;;;;;;;;;;;;2073576;28;20339;-84
2022/03/21 06:37:05;;;;;;;;;;;;;;;;;;2074200;28;19979;-84
2022/03/21 06:41:03;;;;;;;;;;;;;;;;;;2074004;28;19913;-86
2022/03/21 06:42:14;;;;;;;;;;;;;;;;;;2065738;28;20375;-85
2022/03/21 06:43:27;;;;;;;;;;;;;;;;;;;;;
2022/03/21 06:44:27;;;;;;;;;;;;;;;;;;2066929;28;19968;-85
2022/03/21 06:45:28;;;;;;;;;;;;;;;;;;2073608;28;20386;-85
2022/03/21 06:46:31;;;;;;;;;;;;;;;;;;2065031;28;19928;-85
2022/03/21 06:47:49;;;;;;;;;;;;;;;;;;2057270;28;19914;-84
2022/03/21 06:49:01;;;;;;;;;;;;;;;;;;2059319;28;20307;-84
2022/03/21 06:50:06;;;;;;;;;;;;;;;;;;2058449;28;19918;-85
2022/03/21 06:51:14;;;;;;;;;;;;;;;;;;2065020;28;20370;-85
2022/03/21 06:52:18;;;;;;;;;;;;;;;;;;2068720;28;19949;-85
2022/03/21 06:53:19;;;;;;;;;;;;;;;;;;2064800;28;19914;-85
2022/03/21 06:54:42;;;;;;;;;;;;;;;;;;2056939;28;20072;-84
2022/03/21 06:56:06;;;;;;;;;;;;;;;;;;2048200;28;19914;-86
2022/03/21 06:57:06;;;;;;;;;;;;;;;;;;2070786;28;20359;-84
2022/03/21 06:58:14;;;;;;;;;;;;;;;;;;2073879;28;19975;-85
2022/03/21 06:59:23;;;;;;;;;;;;;;;;;;2075936;28;19914;-86
2022/03/21 07:00:24;;;;;;;;;;;;;;;;;;2073657;28;19936;-86
2022/03/21 07:01:37;;;;;;;;;;;;;;;;;;;;;
2022/03/21 07:02:57;;;;;;;;;;;;;;;;;;2071638;28;19924;-85
2022/03/21 07:03:58;;;;;;;;;;;;;;;;;;2072332;28;20040;-87
2022/03/21 07:04:58;;;;;;;;;;;;;;;;;;2064486;28;19961;-87
2022/03/21 07:05:59;;;;;;;;;;;;;;;;;;2056086;28;20427;-86
2022/03/21 07:07:02;;;;;;;;;;;;;;;;;;2064479;28;19921;-87
2022/03/21 07:08:18;;;;;;;;;;;;;;;;;;;;;
2022/03/21 07:12:31;;;;;;;;;;;;;;;;;;2069424;28;20003;-86
2022/03/21 07:13:42;;;;;;;;;;;;;;;;;;2073577;28;20381;-85
2022/03/21 07:16:13;;;;;;;;;;;;;;;;;;2057799;28;19913;-85
2022/03/21 07:17:16;;;;;;;;;;;;;;;;;;2073540;28;19917;-84
2022/03/21 07:18:17;;;;;;;;;;;;;;;;;;2064774;28;19914;-84
2022/03/21 07:19:17;;;;;;;;;;;;;;;;;;2064822;28;19969;-84
2022/03/21 07:20:20;;;;;;;;;;;;;;;;;;2073178;28;19914;-83
2022/03/21 07:21:20;;;;;;;;;;;;;;;;;;2064888;28;20270;-82
2022/03/21 07:22:20;;;;;;;;;;;;;;;;;;2056788;28;20008;-85
2022/03/21 07:23:21;;;;;;;;;;;;;;;;;;2064887;28;20486;-85
2022/03/21 07:24:26;;;;;;;;;;;;;;;;;;2073440;28;19914;-78
2022/03/21 07:25:26;;;;;;;;;;;;;;;;;;2064651;28;19926;-79
2022/03/21 07:26:27;;;;;;;;;;;;;;;;;;2064832;28;20005;-78
2022/03/21 07:27:27;;;;;;;;;;;;;;;;;;2064889;28;19913;-78
2022/03/21 07:28:27;;;;;;;;;;;;;;;;;;2064828;28;19914;-78
2022/03/21 07:29:28;;;;;;;;;;;;;;;;;;2065178;28;19921;-77
2022/03/21 07:30:39;;;;;;;;;;;;;;;;;;2073234;28;19917;-77